Terminal Aerodrome Forecast
Issued by NWS

Home | Current Version | Previous Version | Text Only | Print | Product List | Glossary On
Versions: 1 2 3 4 5 6 7 8 9 10 11 12
000
FTAK31 PANC 290522
TAFAVD
TAF
PAVD 290522Z 2906/3006 07007KT P6SM SCT100
     FM292100 24008KT P6SM BKN100
     FM300000 25010KT P6SM VCSH BKN080
     FM300500 08004KT P6SM SCT080 BKN120
      AMD LTD TO CLD VIS AND WIND=

USA.gov is the U.S. government's official web portal to all federal, state and local government web resources and services.